createdAt,value
2022-09-12T00:00:22.069Z,101106.22
2022-09-12T00:02:48.703Z,101106.22
2022-09-12T00:05:15.121Z,101102.72
2022-09-12T00:07:41.628Z,101106.47
2022-09-12T00:10:07.890Z,101101.88
2022-09-12T00:12:34.357Z,101106.47
2022-09-12T00:15:00.654Z,101098.34
2022-09-12T00:17:27.037Z,101099.19
2022-09-12T00:19:53.580Z,101089.41
2022-09-12T00:22:19.824Z,101088.56
2022-09-12T00:24:46.109Z,101091.88
2022-09-12T00:27:12.486Z,101088.56
2022-09-12T00:29:38.793Z,101095.63
2022-09-12T00:32:05.099Z,101090.50
2022-09-12T00:34:31.518Z,101086.69
2022-09-12T00:36:57.836Z,101085.06
2022-09-12T00:39:24.465Z,101082.34
2022-09-12T00:41:50.745Z,101081.53
2022-09-12T00:44:17.140Z,101081.53
2022-09-12T00:46:43.508Z,101078.81
2022-09-12T00:49:12.000Z,101081.53
2022-09-12T00:51:38.448Z,101081.53
2022-09-12T00:54:04.777Z,101075.28
2022-09-12T00:56:31.122Z,101084.50
2022-09-12T00:58:57.420Z,101083.94
2022-09-12T01:01:23.809Z,101084.75
2022-09-12T01:03:50.206Z,101079.06
2022-09-12T01:06:17.005Z,101073.09
2022-09-12T01:08:44.516Z,101068.47
2022-09-12T01:11:10.873Z,101072.81
2022-09-12T01:13:37.121Z,101070.38
2022-09-12T01:16:03.488Z,101068.47
2022-09-12T01:18:30.160Z,101069.56
2022-09-12T01:20:56.573Z,101074.72
2022-09-12T01:23:23.117Z,101067.66
2022-09-12T01:25:49.681Z,101063.03
2022-09-12T01:28:16.279Z,101062.50
2022-09-12T01:30:42.598Z,101067.66
2022-09-12T01:33:08.948Z,101073.34
2022-09-12T01:35:35.306Z,101067.91
2022-09-12T01:38:01.571Z,101066.28
2022-09-12T01:40:28.015Z,101071.72
2022-09-12T01:42:54.362Z,101076.06
2022-09-12T01:45:21.034Z,101073.34
2022-09-12T01:47:47.337Z,101074.69
2022-09-12T01:50:13.696Z,101075.47
2022-09-12T01:52:40.087Z,101075.47
2022-09-12T01:55:09.562Z,101078.44
2022-09-12T01:57:36.392Z,101085.78
2022-09-12T02:00:02.760Z,101082.19
2022-09-12T02:02:29.134Z,101083.06
2022-09-12T02:04:55.523Z,101078.44
2022-09-12T02:07:21.898Z,101080.91
2022-09-12T02:09:48.220Z,101083.06
2022-09-12T02:12:14.565Z,101077.38
2022-09-12T02:14:41.107Z,101078.44
2022-09-12T02:17:07.505Z,101080.34
2022-09-12T02:19:33.945Z,101076.31
2022-09-12T02:22:00.219Z,101083.88
2022-09-12T02:24:26.597Z,101080.34
2022-09-12T02:26:52.914Z,101079.75
2022-09-12T02:29:19.438Z,101074.06
2022-09-12T02:31:46.460Z,101073.53
2022-09-12T02:34:12.752Z,101075.41
2022-09-12T02:36:39.060Z,101074.31
2022-09-12T02:39:05.499Z,101072.44
2022-09-12T02:41:31.742Z,101068.91
2022-09-12T02:43:58.079Z,101072.69
2022-09-12T02:46:24.344Z,101071.06
2022-09-12T02:48:50.650Z,101076.47
2022-09-12T02:51:21.508Z,101074.03
2022-09-12T02:53:49.734Z,101088.41
2022-09-12T02:56:15.992Z,101083.00
2022-09-12T02:58:42.289Z,101081.31
2022-09-12T03:01:08.619Z,101078.63
2022-09-12T03:03:35.051Z,101084.03
2022-09-12T03:06:01.619Z,101078.31
2022-09-12T03:08:27.905Z,101079.44
2022-09-12T03:13:20.839Z,101078.06
2022-09-12T03:15:47.409Z,101082.41
2022-09-12T03:18:13.865Z,101086.19
2022-09-12T03:20:40.626Z,101091.63
2022-09-12T03:23:06.888Z,101091.03
2022-09-12T03:27:59.791Z,101079.16
2022-09-12T03:30:26.169Z,101079.16
2022-09-12T03:32:52.754Z,101075.59
2022-09-12T03:35:22.817Z,101085.06
2022-09-12T03:37:49.520Z,101086.69
2022-09-12T03:40:15.950Z,101084.56
2022-09-12T03:42:42.209Z,101074.78
2022-09-12T03:45:08.501Z,101084.81
2022-09-12T03:47:34.788Z,101084.81
2022-09-12T03:50:01.160Z,101085.63
2022-09-12T03:52:27.790Z,101084.81
2022-09-12T03:54:54.419Z,101082.09
2022-09-12T03:57:20.849Z,101082.09
2022-09-12T03:59:47.323Z,101081.28
2022-09-12T04:02:13.613Z,101082.91
2022-09-12T04:04:40.137Z,101092.94
2022-09-12T04:07:06.518Z,101090.50
2022-09-12T04:09:32.800Z,101095.66
2022-09-12T04:11:59.122Z,101097.00
2022-09-12T04:14:25.633Z,101096.16
2022-09-12T04:16:52.001Z,101097.53
2022-09-12T04:19:18.386Z,101099.47
2022-09-12T04:21:44.635Z,101105.94
2022-09-12T04:24:11.035Z,101098.06
2022-09-12T04:26:37.396Z,101094.03
2022-09-12T04:29:03.663Z,101103.50
2022-09-12T04:31:30.216Z,101098.06
2022-09-12T04:33:56.654Z,101099.97
2022-09-12T04:36:22.960Z,101089.66
2022-09-12T04:38:49.243Z,101088.28
2022-09-12T04:41:15.789Z,101093.44
2022-09-12T04:43:42.205Z,101093.69
2022-09-12T04:46:08.576Z,101091.00
2022-09-12T04:48:35.127Z,101087.47
2022-09-12T04:51:01.485Z,101091.00
2022-09-12T04:53:28.114Z,101081.22
2022-09-12T04:55:54.504Z,101085.56
2022-09-12T04:58:20.866Z,101086.66
2022-09-12T05:00:47.246Z,101080.16
2022-09-12T05:03:13.585Z,101092.06
2022-09-12T05:05:39.890Z,101077.69
2022-09-12T05:08:06.952Z,101082.84
2022-09-12T05:10:33.435Z,101081.22
2022-09-12T05:12:59.942Z,101075.81
2022-09-12T05:15:26.441Z,101071.47
2022-09-12T05:17:52.730Z,101077.69
2022-09-12T05:20:19.018Z,101077.69
2022-09-12T05:22:45.357Z,101077.69
2022-09-12T05:25:11.862Z,101082.31
2022-09-12T05:27:38.172Z,101081.47
2022-09-12T05:30:04.617Z,101084.19
2022-09-12T05:32:31.002Z,101088.22
2022-09-12T05:34:57.438Z,101094.22
2022-09-12T05:37:23.853Z,101091.53
2022-09-12T05:39:50.239Z,101092.56
2022-09-12T05:42:16.521Z,101096.38
2022-09-12T05:44:42.853Z,101093.66
2022-09-12T05:47:10.053Z,101104.50
2022-09-12T05:49:36.999Z,101099.66
2022-09-12T05:52:03.329Z,101102.88
2022-09-12T05:54:31.661Z,101107.22
2022-09-12T05:56:58.196Z,101108.28
2022-09-12T05:59:24.559Z,101109.09
2022-09-12T06:01:51.090Z,101115.59
2022-09-12T06:04:17.372Z,101110.69
2022-09-12T06:06:43.638Z,101121.00
2022-09-12T06:09:10.141Z,101129.97
2022-09-12T06:11:36.641Z,101131.59
2022-09-12T06:14:02.985Z,101129.22
2022-09-12T06:16:29.579Z,101129.34
2022-09-12T06:18:55.949Z,101135.25
2022-09-12T06:21:22.325Z,101126.97
2022-09-12T06:23:48.794Z,101133.19
2022-09-12T06:26:15.197Z,101133.19
2022-09-12T06:28:41.578Z,101140.25
2022-09-12T06:31:08.099Z,101141.31
2022-09-12T06:33:34.390Z,101141.81
2022-09-12T06:36:00.692Z,101145.94
2022-09-12T06:38:27.023Z,101139.69
2022-09-12T06:40:53.289Z,101146.75
2022-09-12T06:43:19.598Z,101142.94
2022-09-12T06:45:46.092Z,101150.28
2022-09-12T06:48:12.703Z,101145.09
2022-09-12T06:50:39.055Z,101151.09
2022-09-12T06:53:05.396Z,101157.59
2022-09-12T06:55:31.782Z,101155.13
2022-09-12T06:57:58.094Z,101151.03
2022-09-12T07:00:24.510Z,101157.03
2022-09-12T07:02:51.101Z,101159.22
2022-09-12T07:05:18.080Z,101153.78
2022-09-12T07:07:44.633Z,101151.38
2022-09-12T07:10:11.241Z,101154.06
2022-09-12T07:12:37.534Z,101154.06
2022-09-12T07:15:04.038Z,101147.81
2022-09-12T07:17:30.730Z,101158.41
2022-09-12T07:19:57.198Z,101156.78
2022-09-12T07:22:23.709Z,101160.28
2022-09-12T07:24:50.036Z,101162.22
2022-09-12T07:27:16.635Z,101161.38
2022-09-12T07:29:43.017Z,101163.25
2022-09-12T07:32:09.478Z,101162.22
2022-09-12T07:34:35.798Z,101165.16
2022-09-12T07:37:02.099Z,101163.25
2022-09-12T07:39:28.513Z,101167.88
2022-09-12T07:41:54.829Z,101167.88
2022-09-12T07:44:21.485Z,101169.75
2022-09-12T07:46:47.822Z,101165.97
2022-09-12T07:49:14.117Z,101167.88
2022-09-12T07:51:40.766Z,101169.75
2022-09-12T07:54:08.165Z,101166.22
2022-09-12T07:56:38.717Z,101177.06
2022-09-12T07:59:05.541Z,101170.59
2022-09-12T08:01:31.864Z,101168.91
2022-09-12T08:03:58.238Z,101170.59
2022-09-12T08:06:24.726Z,101174.34
2022-09-12T08:08:51.205Z,101172.47
2022-09-12T08:11:17.486Z,101170.84
2022-09-12T08:13:43.833Z,101171.91
2022-09-12T08:16:10.687Z,101173.53
2022-09-12T08:18:37.089Z,101170.59
2022-09-12T08:21:03.496Z,101171.63
2022-09-12T08:23:29.865Z,101174.34
2022-09-12T08:25:56.253Z,101172.97
2022-09-12T08:28:22.780Z,101171.06
2022-09-12T08:30:49.248Z,101165.41
2022-09-12T08:33:15.534Z,101159.16
2022-09-12T08:35:41.873Z,101157.28
2022-09-12T08:38:08.934Z,101158.06
2022-09-12T08:40:35.618Z,101161.88
2022-09-12T08:43:01.949Z,101161.88
2022-09-12T08:45:28.249Z,101158.06
2022-09-12T08:47:54.848Z,101161.06
2022-09-12T08:50:21.194Z,101161.06
2022-09-12T08:52:47.694Z,101160.22
2022-09-12T08:55:14.057Z,101165.66
2022-09-12T08:57:40.554Z,101165.66
2022-09-12T09:00:06.976Z,101163.78
2022-09-12T09:02:33.299Z,101158.34
2022-09-12T09:04:59.661Z,101162.94
2022-09-12T09:07:25.879Z,101160.00
2022-09-12T09:09:52.691Z,101158.34
2022-09-12T09:12:19.050Z,101162.13
2022-09-12T09:14:45.473Z,101165.66
2022-09-12T09:17:11.973Z,101161.88
2022-09-12T09:19:38.294Z,101158.59
2022-09-12T09:22:04.677Z,101160.22
2022-09-12T09:24:31.025Z,101173.53
2022-09-12T09:26:57.336Z,101162.69
2022-09-12T09:29:23.613Z,101168.91
2022-09-12T09:31:49.935Z,101158.06
2022-09-12T09:34:16.276Z,101157.53
2022-09-12T09:36:43.038Z,101160.00
2022-09-12T09:39:09.377Z,101161.88
2022-09-12T09:41:35.790Z,101161.63
2022-09-12T09:44:02.149Z,101165.72
2022-09-12T09:46:28.652Z,101158.66
2022-09-12T09:48:55.024Z,101152.66
2022-09-12T09:51:21.346Z,101152.66
2022-09-12T09:53:47.621Z,101149.16
2022-09-12T09:56:13.968Z,101147.22
2022-09-12T09:58:40.347Z,101144.28
2022-09-12T10:01:07.516Z,101137.22
2022-09-12T10:03:33.802Z,101137.22
2022-09-12T10:06:00.111Z,101141.56
2022-09-12T10:08:26.546Z,101140.75
2022-09-12T10:10:53.036Z,101138.06
2022-09-12T10:13:19.416Z,101135.09
2022-09-12T10:15:45.776Z,101135.59
2022-09-12T10:18:12.238Z,101132.63
2022-09-12T10:20:38.492Z,101141.56
2022-09-12T10:23:05.006Z,101136.38
2022-09-12T10:25:31.439Z,101133.69
2022-09-12T10:27:57.720Z,101136.38
2022-09-12T10:30:24.078Z,101130.97
2022-09-12T10:32:50.422Z,101131.56
2022-09-12T10:35:16.730Z,101138.56
2022-09-12T10:37:43.103Z,101130.41
2022-09-12T10:40:09.687Z,101133.69
2022-09-12T10:42:36.077Z,101126.38
2022-09-12T10:45:02.362Z,101125.31
2022-09-12T10:47:28.694Z,101114.47
2022-09-12T10:49:55.233Z,101125.31
2022-09-12T10:52:21.525Z,101118.84
2022-09-12T10:54:47.914Z,101116.91
2022-09-12T10:57:14.898Z,101114.22
2022-09-12T10:59:41.553Z,101116.13
2022-09-12T11:02:07.900Z,101121.25
2022-09-12T11:04:34.290Z,101118.56
2022-09-12T11:07:00.585Z,101113.41
2022-09-12T11:09:26.973Z,101112.56
2022-09-12T11:11:53.682Z,101115.03
2022-09-12T11:14:20.164Z,101113.13
2022-09-12T11:16:46.609Z,101117.75
2022-09-12T11:19:12.971Z,101113.41
2022-09-12T11:21:39.462Z,101109.63
2022-09-12T11:24:05.766Z,101115.03
2022-09-12T11:26:32.140Z,101111.75
2022-09-12T11:28:58.496Z,101113.41
2022-09-12T11:31:24.935Z,101107.16
2022-09-12T11:33:53.931Z,101106.06
2022-09-12T11:36:23.005Z,101106.06
2022-09-12T11:38:49.285Z,101109.63
2022-09-12T11:41:15.705Z,101098.19
2022-09-12T11:43:42.149Z,101097.16
2022-09-12T11:46:08.732Z,101097.94
2022-09-12T11:48:35.310Z,101094.44
2022-09-12T11:51:01.746Z,101094.44
2022-09-12T11:53:28.372Z,101097.94
2022-09-12T11:55:54.727Z,101094.44
2022-09-12T11:58:22.105Z,101091.97
2022-09-12T12:00:48.361Z,101091.72
2022-09-12T12:03:14.882Z,101084.63
2022-09-12T12:05:41.275Z,101085.47
2022-09-12T12:08:07.881Z,101094.69
2022-09-12T12:10:34.326Z,101083.59
2022-09-12T12:13:00.629Z,101080.88
2022-09-12T12:15:26.998Z,101081.94
2022-09-12T12:17:53.270Z,101089.00
2022-09-12T12:20:19.593Z,101086.31
2022-09-12T12:22:47.053Z,101076.25
2022-09-12T12:25:14.763Z,101076.25
2022-09-12T12:27:42.921Z,101076.25
2022-09-12T12:30:09.442Z,101076.25
2022-09-12T12:32:37.253Z,101070.03
2022-09-12T12:35:03.594Z,101073.53
2022-09-12T12:37:29.909Z,101065.16
2022-09-12T12:39:56.342Z,101066.25
2022-09-12T12:42:22.700Z,101064.34
2022-09-12T12:44:48.952Z,101072.47
2022-09-12T12:47:15.466Z,101067.88
2022-09-12T12:49:41.814Z,101067.88
2022-09-12T12:52:08.147Z,101067.88
2022-09-12T12:54:34.538Z,101065.16
2022-09-12T12:57:01.057Z,101066.00
2022-09-12T12:59:27.913Z,101056.19
2022-09-12T13:01:55.312Z,101051.59
2022-09-12T13:04:22.108Z,101048.06
2022-09-12T13:06:48.413Z,101051.34
2022-09-12T13:09:14.709Z,101050.53
2022-09-12T13:11:41.177Z,101044.84
2022-09-12T13:14:07.524Z,101050.28
2022-09-12T13:16:33.801Z,101042.97
2022-09-12T13:19:00.218Z,101044.84
2022-09-12T13:21:26.693Z,101042.16
2022-09-12T13:23:53.217Z,101044.03
2022-09-12T13:26:19.587Z,101043.78
2022-09-12T13:28:46.090Z,101039.44
2022-09-12T13:31:12.630Z,101036.72
2022-09-12T13:33:39.027Z,101035.63
2022-09-12T13:36:05.560Z,101025.38
2022-09-12T13:38:32.862Z,101033.81
2022-09-12T13:40:59.374Z,101031.34
2022-09-12T13:43:26.262Z,101025.38
2022-09-12T13:45:52.582Z,101028.34
2022-09-12T13:48:18.966Z,101016.06
2022-09-12T13:50:45.464Z,101025.34
2022-09-12T13:53:12.050Z,101025.34
2022-09-12T13:55:38.449Z,101019.31
2022-09-12T13:58:04.793Z,101015.00
2022-09-12T14:00:31.142Z,101019.06
2022-09-12T14:02:57.625Z,101031.75
2022-09-12T14:05:23.929Z,101022.88
2022-09-12T14:07:50.622Z,101030.47
2022-09-12T14:10:17.014Z,101021.53
2022-09-12T14:12:43.518Z,101019.06
2022-09-12T14:15:09.974Z,101020.72
2022-09-12T14:17:36.543Z,101015.28
2022-09-12T14:20:02.895Z,101019.13
2022-09-12T14:22:29.285Z,101015.31
2022-09-12T14:24:55.713Z,101009.66
2022-09-12T14:27:22.238Z,101005.91
2022-09-12T14:29:48.521Z,101009.41
2022-09-12T14:32:14.830Z,101007.53
2022-09-12T14:34:41.168Z,101004.81
2022-09-12T14:37:08.464Z,101001.84
2022-09-12T14:39:35.027Z,101010.78
2022-09-12T14:42:01.551Z,101004.84
2022-09-12T14:44:28.105Z,101000.50
2022-09-12T14:49:20.769Z,101003.28
2022-09-12T14:51:51.118Z,100996.47
2022-09-12T14:54:18.145Z,100999.72
2022-09-12T14:56:45.860Z,100999.97
2022-09-12T14:59:12.227Z,100996.75
2022-09-12T15:01:38.819Z,100992.97
2022-09-12T15:04:05.260Z,100995.88
2022-09-12T15:06:31.545Z,100989.09
2022-09-12T15:08:58.063Z,100987.50
2022-09-12T15:11:24.673Z,100984.78
2022-09-12T15:13:51.101Z,100990.47
2022-09-12T15:23:37.059Z,100979.38
2022-09-12T15:26:03.605Z,100983.72
2022-09-12T15:28:30.653Z,100978.03
2022-09-12T15:30:57.061Z,100981.56
2022-09-12T15:33:23.410Z,100979.66
2022-09-12T15:35:50.112Z,100979.66
2022-09-12T15:38:16.726Z,100981.31
2022-09-12T15:40:43.293Z,100982.13
2022-09-12T15:43:09.704Z,100978.34
2022-09-12T15:45:36.266Z,100982.72
2022-09-12T15:48:02.657Z,100981.66
2022-09-12T15:50:28.960Z,100975.97
2022-09-12T15:52:55.412Z,100983.28
2022-09-12T15:55:21.673Z,100979.50
2022-09-12T15:57:48.006Z,100981.13
2022-09-12T16:00:14.320Z,100982.22
2022-09-12T16:02:40.747Z,100985.72
2022-09-12T16:05:07.063Z,100977.59
2022-09-12T16:07:33.514Z,100983.84
2022-09-12T16:09:59.796Z,100977.34
2022-09-12T16:12:26.072Z,100974.63
2022-09-12T16:14:52.677Z,100978.16
2022-09-12T16:17:18.984Z,100972.47
2022-09-12T16:19:45.525Z,100971.41
2022-09-12T16:22:11.860Z,100968.69
2022-09-12T16:24:38.178Z,100963.28
2022-09-12T16:27:04.719Z,100964.31
2022-09-12T16:29:31.060Z,100967.88
2022-09-12T16:31:57.490Z,100957.84
2022-09-12T16:34:24.039Z,100955.13
2022-09-12T16:36:50.417Z,100955.13
2022-09-12T16:39:16.753Z,100951.34
2022-09-12T16:41:43.890Z,100954.88
2022-09-12T16:44:10.451Z,100951.34
2022-09-12T16:46:36.889Z,100948.63
2022-09-12T16:49:03.226Z,100947.78
2022-09-12T16:51:29.581Z,100948.63
2022-09-12T16:53:55.913Z,100949.16
2022-09-12T16:56:22.261Z,100949.16
2022-09-12T16:58:48.880Z,100941.03
2022-09-12T17:01:15.671Z,100941.31
2022-09-12T17:03:42.047Z,100938.31
2022-09-12T17:06:08.744Z,100937.53
2022-09-12T17:08:35.133Z,100929.94
2022-09-12T17:11:01.404Z,100932.09
2022-09-12T17:13:41.312Z,100929.94
2022-09-12T17:16:14.496Z,100934.31
2022-09-12T17:18:40.933Z,100934.31
2022-09-12T17:21:07.369Z,100921.53
2022-09-12T17:23:33.797Z,100930.50
2022-09-12T17:26:00.237Z,100924.81
2022-09-12T17:28:26.689Z,100923.16
2022-09-12T17:30:53.012Z,100934.00
2022-09-12T17:33:19.621Z,100922.09
2022-09-12T17:35:45.883Z,100922.91
2022-09-12T17:38:15.487Z,100919.41
2022-09-12T17:40:59.010Z,100919.09
2022-09-12T17:43:26.810Z,100917.22
2022-09-12T17:45:53.158Z,100917.22
2022-09-12T17:48:19.602Z,100915.59
2022-09-12T17:50:45.922Z,100915.34
2022-09-12T17:53:12.553Z,100915.34
2022-09-12T17:55:38.902Z,100917.47
2022-09-12T17:58:05.223Z,100921.81
2022-09-12T18:00:31.524Z,100920.75
2022-09-12T18:02:57.888Z,100912.38
2022-09-12T18:05:24.458Z,100914.78
2022-09-12T18:07:51.222Z,100911.28
2022-09-12T18:10:17.692Z,100912.09
2022-09-12T18:12:44.072Z,100914.53
2022-09-12T18:15:10.418Z,100912.41
2022-09-12T18:17:36.669Z,100916.16
2022-09-12T18:20:02.980Z,100919.72
2022-09-12T18:22:29.529Z,100913.19
2022-09-12T18:24:55.881Z,100915.66
2022-09-12T18:27:22.223Z,100905.88
2022-09-12T18:30:04.222Z,100908.34
2022-09-12T18:32:35.194Z,100912.94
2022-09-12T18:35:01.785Z,100908.09
2022-09-12T18:37:28.165Z,100905.63
2022-09-12T18:39:54.535Z,100905.38
2022-09-12T18:42:20.848Z,100908.09
2022-09-12T18:44:47.165Z,100912.44
2022-09-12T18:47:13.621Z,100915.13
2022-09-12T18:49:40.146Z,100921.09
2022-09-12T18:52:06.445Z,100922.75
2022-09-12T18:54:32.903Z,100929.00
2022-09-12T18:56:59.218Z,100917.34
2022-09-12T18:59:25.701Z,100923.31
2022-09-12T19:01:52.027Z,100920.59
2022-09-12T19:04:18.366Z,100919.50
2022-09-12T19:06:44.739Z,100922.22
2022-09-12T19:09:11.406Z,100912.19
2022-09-12T19:11:37.762Z,100917.38
2022-09-12T19:14:04.193Z,100922.78
2022-09-12T19:16:30.705Z,100920.63
2022-09-12T19:18:57.000Z,100920.63
2022-09-12T19:21:23.466Z,100922.28
2022-09-12T19:23:50.125Z,100923.06
2022-09-12T19:26:16.558Z,100904.91
2022-09-12T19:28:42.989Z,100902.19
2022-09-12T19:31:09.493Z,100898.38
2022-09-12T19:33:36.228Z,100902.72
2022-09-12T19:36:02.608Z,100906.53
2022-09-12T19:38:28.853Z,100902.72
2022-09-12T19:40:55.328Z,100901.66
2022-09-12T19:43:21.678Z,100896.22
2022-09-12T19:45:47.901Z,100898.66
2022-09-12T19:48:14.234Z,100901.38
2022-09-12T19:50:40.744Z,100895.97
2022-09-12T19:53:07.113Z,100895.69
2022-09-12T19:55:33.390Z,100892.97
2022-09-12T19:57:59.735Z,100885.66
2022-09-12T20:00:26.349Z,100888.13
2022-09-12T20:02:52.650Z,100889.75
2022-09-12T20:05:18.966Z,100885.13
2022-09-12T20:07:45.401Z,100884.06
2022-09-12T20:10:11.692Z,100885.69
2022-09-12T20:12:38.908Z,100886.53
2022-09-12T20:15:05.517Z,100887.88
2022-09-12T20:17:31.925Z,100882.47
2022-09-12T20:19:59.037Z,100884.34
2022-09-12T20:22:25.444Z,100878.91
2022-09-12T20:24:51.831Z,100878.91
2022-09-12T20:27:18.174Z,100879.47
2022-09-12T20:29:44.492Z,100874.84
2022-09-12T20:32:10.801Z,100872.13
2022-09-12T20:34:37.136Z,100879.19
2022-09-12T20:37:03.506Z,100878.13
2022-09-12T20:39:29.938Z,100872.72
2022-09-12T20:41:56.285Z,100870.78
2022-09-12T20:44:22.676Z,100870.00
2022-09-12T20:46:49.256Z,100873.25
2022-09-12T20:49:15.729Z,100872.16
2022-09-12T20:51:42.026Z,100870.81
2022-09-12T20:54:08.437Z,100865.13
2022-09-12T20:56:34.794Z,100865.94
2022-09-12T20:59:01.364Z,100872.19
2022-09-12T21:01:27.667Z,100865.13
2022-09-12T21:03:54.278Z,100864.84
2022-09-12T21:06:20.786Z,100861.88
2022-09-12T21:08:47.218Z,100866.78
2022-09-12T21:11:14.136Z,100860.25
2022-09-12T21:13:40.491Z,100854.28
2022-09-12T21:16:06.951Z,100856.19
2022-09-12T21:18:33.260Z,100848.84
2022-09-12T21:21:00.032Z,100851.06
2022-09-12T21:23:26.648Z,100845.91
2022-09-12T21:25:53.002Z,100854.59
2022-09-12T21:28:19.359Z,100847.00
2022-09-12T21:30:46.191Z,100848.09
2022-09-12T21:33:12.689Z,100852.44
2022-09-12T21:35:39.041Z,100850.28
2022-09-12T21:38:05.357Z,100851.06
2022-09-12T21:40:31.968Z,100852.16
2022-09-12T21:42:58.829Z,100848.09
2022-09-12T21:45:25.115Z,100845.38
2022-09-12T21:47:51.479Z,100859.22
2022-09-12T21:50:17.877Z,100845.38
2022-09-12T21:52:44.398Z,100844.84
2022-09-12T21:55:11.215Z,100837.25
2022-09-12T21:57:38.164Z,100841.63
2022-09-12T22:00:04.654Z,100838.59
2022-09-12T22:02:33.731Z,100829.66
2022-09-12T22:05:00.081Z,100821.25
2022-09-12T22:07:27.436Z,100828.31
2022-09-12T22:09:53.851Z,100827.47
2022-09-12T22:12:20.366Z,100822.88
2022-09-12T22:14:46.724Z,100816.34
2022-09-12T22:17:13.125Z,100810.66
2022-09-12T22:19:39.596Z,100818.81
2022-09-12T22:22:05.920Z,100821.25
2022-09-12T22:24:32.526Z,100807.94
2022-09-12T22:26:58.854Z,100812.84
2022-09-12T22:29:25.112Z,100812.84
2022-09-12T22:31:52.035Z,100822.63
2022-09-12T22:34:18.358Z,100819.91
2022-09-12T22:36:44.634Z,100815.56
2022-09-12T22:39:11.144Z,100805.22
2022-09-12T22:41:37.689Z,100803.59
2022-09-12T22:44:03.938Z,100798.19
2022-09-12T22:46:30.268Z,100801.72
2022-09-12T22:48:56.651Z,100793.84
2022-09-12T22:51:23.018Z,100796.00
2022-09-12T22:53:49.401Z,100788.94
2022-09-12T22:56:15.797Z,100786.47
2022-09-12T22:58:42.157Z,100777.53
2022-09-12T23:01:08.650Z,100772.38
2022-09-12T23:03:35.065Z,100781.56
2022-09-12T23:06:01.431Z,100775.34
2022-09-12T23:08:27.742Z,100776.13
2022-09-12T23:10:54.037Z,100774.25
2022-09-12T23:13:20.442Z,100776.44
2022-09-12T23:15:46.939Z,100774.53
2022-09-12T23:18:14.447Z,100765.53
2022-09-12T23:20:41.205Z,100768.56
2022-09-12T23:23:07.538Z,100761.22
2022-09-12T23:25:33.930Z,100763.94
2022-09-12T23:28:00.367Z,100761.22
2022-09-12T23:30:26.734Z,100753.06
2022-09-12T23:32:53.017Z,100756.59
2022-09-12T23:35:19.518Z,100753.88
2022-09-12T23:37:45.850Z,100755.78
2022-09-12T23:40:12.247Z,100753.06
2022-09-12T23:42:38.774Z,100757.41
2022-09-12T23:45:05.153Z,100746.53
2022-09-12T23:47:31.492Z,100750.34
2022-09-12T23:49:57.987Z,100748.47
2022-09-12T23:52:24.313Z,100746.53
2022-09-12T23:54:50.683Z,100732.44
2022-09-12T23:57:17.069Z,100734.31
2022-09-12T23:59:43.350Z,100730.25
